sensor_id;sensor_type;location;lat;lon;timestamp;P1;durP1;ratioP1;P2;durP2;ratioP2
16642;SDS011;8435;52.184;5.406;2023-08-01T00:00:18;3.43;;;2.50;;
16642;SDS011;8435;52.184;5.406;2023-08-01T00:02:45;2.67;;;2.08;;
16642;SDS011;8435;52.184;5.406;2023-08-01T00:05:12;4.43;;;2.40;;
16642;SDS011;8435;52.184;5.406;2023-08-01T00:07:39;2.65;;;2.10;;
16642;SDS011;8435;52.184;5.406;2023-08-01T00:10:08;2.37;;;2.00;;
16642;SDS011;8435;52.184;5.406;2023-08-01T00:12:35;3.10;;;2.30;;
16642;SDS011;8435;52.184;5.406;2023-08-01T00:15:03;3.03;;;2.10;;
16642;SDS011;8435;52.184;5.406;2023-08-01T00:17:33;3.13;;;2.40;;
16642;SDS011;8435;52.184;5.406;2023-08-01T00:20:00;4.23;;;2.63;;
16642;SDS011;8435;52.184;5.406;2023-08-01T00:22:27;4.13;;;2.70;;
16642;SDS011;8435;52.184;5.406;2023-08-01T00:24:54;4.20;;;2.90;;
16642;SDS011;8435;52.184;5.406;2023-08-01T00:27:23;4.13;;;2.63;;
16642;SDS011;8435;52.184;5.406;2023-08-01T00:29:50;4.03;;;2.23;;
16642;SDS011;8435;52.184;5.406;2023-08-01T00:32:17;4.20;;;2.77;;
16642;SDS011;8435;52.184;5.406;2023-08-01T00:34:45;4.77;;;2.87;;
16642;SDS011;8435;52.184;5.406;2023-08-01T00:37:12;6.13;;;2.90;;
16642;SDS011;8435;52.184;5.406;2023-08-01T00:39:39;4.80;;;2.70;;
16642;SDS011;8435;52.184;5.406;2023-08-01T00:42:06;3.90;;;3.00;;
16642;SDS011;8435;52.184;5.406;2023-08-01T00:44:34;6.47;;;3.10;;
16642;SDS011;8435;52.184;5.406;2023-08-01T00:47:01;4.10;;;2.53;;
16642;SDS011;8435;52.184;5.406;2023-08-01T00:49:28;4.23;;;2.73;;
16642;SDS011;8435;52.184;5.406;2023-08-01T00:51:55;5.77;;;3.00;;
16642;SDS011;8435;52.184;5.406;2023-08-01T00:54:22;3.23;;;2.83;;
16642;SDS011;8435;52.184;5.406;2023-08-01T00:56:49;4.33;;;2.90;;
16642;SDS011;8435;52.184;5.406;2023-08-01T00:59:16;7.07;;;2.47;;
16642;SDS011;8435;52.184;5.406;2023-08-01T01:01:44;7.13;;;3.07;;
16642;SDS011;8435;52.184;5.406;2023-08-01T01:04:11;3.40;;;2.70;;
16642;SDS011;8435;52.184;5.406;2023-08-01T01:06:39;5.17;;;2.93;;
16642;SDS011;8435;52.184;5.406;2023-08-01T01:09:16;5.37;;;3.20;;
16642;SDS011;8435;52.184;5.406;2023-08-01T01:11:44;4.50;;;2.73;;
16642;SDS011;8435;52.184;5.406;2023-08-01T01:14:14;2.83;;;2.23;;
16642;SDS011;8435;52.184;5.406;2023-08-01T01:16:41;4.50;;;2.60;;
16642;SDS011;8435;52.184;5.406;2023-08-01T01:19:09;4.40;;;2.50;;
16642;SDS011;8435;52.184;5.406;2023-08-01T01:21:38;5.53;;;2.77;;
16642;SDS011;8435;52.184;5.406;2023-08-01T01:24:07;5.63;;;2.90;;
16642;SDS011;8435;52.184;5.406;2023-08-01T01:26:36;5.23;;;2.83;;
16642;SDS011;8435;52.184;5.406;2023-08-01T01:29:19;4.03;;;2.87;;
16642;SDS011;8435;52.184;5.406;2023-08-01T01:31:49;2.80;;;2.50;;
16642;SDS011;8435;52.184;5.406;2023-08-01T01:34:17;6.20;;;2.83;;
16642;SDS011;8435;52.184;5.406;2023-08-01T01:36:46;3.57;;;2.60;;
16642;SDS011;8435;52.184;5.406;2023-08-01T01:39:13;6.67;;;3.10;;
16642;SDS011;8435;52.184;5.406;2023-08-01T01:41:39;4.77;;;3.10;;
16642;SDS011;8435;52.184;5.406;2023-08-01T01:44:06;5.77;;;2.97;;
16642;SDS011;8435;52.184;5.406;2023-08-01T01:46:33;6.27;;;3.17;;
16642;SDS011;8435;52.184;5.406;2023-08-01T01:49:00;6.20;;;3.30;;
16642;SDS011;8435;52.184;5.406;2023-08-01T01:51:27;4.03;;;3.30;;
16642;SDS011;8435;52.184;5.406;2023-08-01T01:53:56;5.43;;;3.10;;
16642;SDS011;8435;52.184;5.406;2023-08-01T01:56:23;5.83;;;3.00;;
16642;SDS011;8435;52.184;5.406;2023-08-01T01:58:50;5.17;;;3.03;;
16642;SDS011;8435;52.184;5.406;2023-08-01T02:01:17;6.53;;;2.80;;
16642;SDS011;8435;52.184;5.406;2023-08-01T02:03:43;6.63;;;3.10;;
16642;SDS011;8435;52.184;5.406;2023-08-01T02:06:10;5.20;;;3.17;;
16642;SDS011;8435;52.184;5.406;2023-08-01T02:08:37;5.43;;;2.80;;
16642;SDS011;8435;52.184;5.406;2023-08-01T02:11:05;3.63;;;2.87;;
16642;SDS011;8435;52.184;5.406;2023-08-01T02:13:32;4.53;;;3.43;;
16642;SDS011;8435;52.184;5.406;2023-08-01T02:15:59;5.90;;;3.07;;
16642;SDS011;8435;52.184;5.406;2023-08-01T02:18:26;4.67;;;2.80;;
16642;SDS011;8435;52.184;5.406;2023-08-01T02:20:52;6.53;;;3.30;;
16642;SDS011;8435;52.184;5.406;2023-08-01T02:23:19;5.93;;;3.47;;
16642;SDS011;8435;52.184;5.406;2023-08-01T02:25:48;6.40;;;3.20;;
16642;SDS011;8435;52.184;5.406;2023-08-01T02:28:16;4.13;;;3.20;;
16642;SDS011;8435;52.184;5.406;2023-08-01T02:30:42;5.97;;;2.90;;
16642;SDS011;8435;52.184;5.406;2023-08-01T02:33:10;5.93;;;3.60;;
16642;SDS011;8435;52.184;5.406;2023-08-01T02:35:37;7.67;;;3.37;;
16642;SDS011;8435;52.184;5.406;2023-08-01T02:38:05;4.87;;;3.43;;
16642;SDS011;8435;52.184;5.406;2023-08-01T02:40:31;4.73;;;3.10;;
16642;SDS011;8435;52.184;5.406;2023-08-01T02:42:58;6.23;;;3.27;;
16642;SDS011;8435;52.184;5.406;2023-08-01T02:45:26;6.80;;;3.27;;
16642;SDS011;8435;52.184;5.406;2023-08-01T02:47:53;4.73;;;3.33;;
16642;SDS011;8435;52.184;5.406;2023-08-01T02:50:23;4.60;;;3.63;;
16642;SDS011;8435;52.184;5.406;2023-08-01T02:52:50;5.10;;;3.40;;
16642;SDS011;8435;52.184;5.406;2023-08-01T02:55:16;4.60;;;3.10;;
16642;SDS011;8435;52.184;5.406;2023-08-01T02:57:43;4.50;;;3.10;;
16642;SDS011;8435;52.184;5.406;2023-08-01T03:00:10;4.27;;;2.97;;
16642;SDS011;8435;52.184;5.406;2023-08-01T03:02:39;3.77;;;2.60;;
16642;SDS011;8435;52.184;5.406;2023-08-01T03:05:08;5.43;;;3.03;;
16642;SDS011;8435;52.184;5.406;2023-08-01T03:07:36;4.10;;;2.97;;
16642;SDS011;8435;52.184;5.406;2023-08-01T03:10:02;4.70;;;2.80;;
16642;SDS011;8435;52.184;5.406;2023-08-01T03:12:31;4.73;;;3.07;;
16642;SDS011;8435;52.184;5.406;2023-08-01T03:14:58;4.07;;;3.00;;
16642;SDS011;8435;52.184;5.406;2023-08-01T03:17:25;5.60;;;3.17;;
16642;SDS011;8435;52.184;5.406;2023-08-01T03:19:53;6.00;;;3.43;;
16642;SDS011;8435;52.184;5.406;2023-08-01T03:22:22;4.33;;;3.20;;
16642;SDS011;8435;52.184;5.406;2023-08-01T03:24:49;4.67;;;3.13;;
16642;SDS011;8435;52.184;5.406;2023-08-01T03:27:16;3.47;;;2.83;;
16642;SDS011;8435;52.184;5.406;2023-08-01T03:29:44;5.10;;;3.10;;
16642;SDS011;8435;52.184;5.406;2023-08-01T03:32:11;4.43;;;3.43;;
16642;SDS011;8435;52.184;5.406;2023-08-01T03:34:38;4.43;;;2.93;;
16642;SDS011;8435;52.184;5.406;2023-08-01T03:37:07;4.57;;;3.23;;
16642;SDS011;8435;52.184;5.406;2023-08-01T03:39:36;3.53;;;3.03;;
16642;SDS011;8435;52.184;5.406;2023-08-01T03:42:09;3.83;;;2.63;;
16642;SDS011;8435;52.184;5.406;2023-08-01T03:44:36;4.20;;;2.60;;
16642;SDS011;8435;52.184;5.406;2023-08-01T03:47:03;4.73;;;3.00;;
16642;SDS011;8435;52.184;5.406;2023-08-01T03:49:30;6.23;;;3.50;;
16642;SDS011;8435;52.184;5.406;2023-08-01T03:51:56;4.97;;;3.43;;
16642;SDS011;8435;52.184;5.406;2023-08-01T03:54:25;6.87;;;3.47;;
16642;SDS011;8435;52.184;5.406;2023-08-01T03:56:51;5.40;;;3.50;;
16642;SDS011;8435;52.184;5.406;2023-08-01T03:59:18;4.90;;;3.40;;
16642;SDS011;8435;52.184;5.406;2023-08-01T04:01:45;6.00;;;3.53;;
16642;SDS011;8435;52.184;5.406;2023-08-01T04:04:16;5.87;;;4.20;;
16642;SDS011;8435;52.184;5.406;2023-08-01T04:06:43;5.80;;;4.00;;
16642;SDS011;8435;52.184;5.406;2023-08-01T04:09:09;4.80;;;3.53;;
16642;SDS011;8435;52.184;5.406;2023-08-01T04:11:37;6.50;;;3.80;;
16642;SDS011;8435;52.184;5.406;2023-08-01T04:14:04;5.70;;;3.70;;
16642;SDS011;8435;52.184;5.406;2023-08-01T04:16:31;4.47;;;3.20;;
16642;SDS011;8435;52.184;5.406;2023-08-01T04:18:58;6.40;;;3.97;;
16642;SDS011;8435;52.184;5.406;2023-08-01T04:21:25;5.53;;;4.20;;
16642;SDS011;8435;52.184;5.406;2023-08-01T04:23:52;6.37;;;3.73;;
16642;SDS011;8435;52.184;5.406;2023-08-01T04:26:19;7.13;;;4.13;;
16642;SDS011;8435;52.184;5.406;2023-08-01T04:28:48;6.83;;;4.00;;
16642;SDS011;8435;52.184;5.406;2023-08-01T04:31:14;7.20;;;4.47;;
16642;SDS011;8435;52.184;5.406;2023-08-01T04:33:42;7.30;;;4.00;;
16642;SDS011;8435;52.184;5.406;2023-08-01T04:36:09;5.83;;;3.67;;
16642;SDS011;8435;52.184;5.406;2023-08-01T04:38:36;7.30;;;4.50;;
16642;SDS011;8435;52.184;5.406;2023-08-01T04:41:03;6.33;;;3.53;;
16642;SDS011;8435;52.184;5.406;2023-08-01T04:43:30;8.33;;;4.23;;
16642;SDS011;8435;52.184;5.406;2023-08-01T04:45:58;4.97;;;3.70;;
16642;SDS011;8435;52.184;5.406;2023-08-01T04:48:25;8.67;;;4.37;;
16642;SDS011;8435;52.184;5.406;2023-08-01T04:50:52;6.93;;;4.00;;
16642;SDS011;8435;52.184;5.406;2023-08-01T04:53:18;9.20;;;4.67;;
16642;SDS011;8435;52.184;5.406;2023-08-01T04:55:45;7.53;;;4.00;;
16642;SDS011;8435;52.184;5.406;2023-08-01T04:58:15;6.73;;;4.80;;
16642;SDS011;8435;52.184;5.406;2023-08-01T05:00:42;7.33;;;4.33;;
16642;SDS011;8435;52.184;5.406;2023-08-01T05:03:10;8.47;;;4.47;;
16642;SDS011;8435;52.184;5.406;2023-08-01T05:05:37;7.80;;;4.60;;
16642;SDS011;8435;52.184;5.406;2023-08-01T05:08:03;9.83;;;4.97;;
16642;SDS011;8435;52.184;5.406;2023-08-01T05:10:33;9.07;;;4.53;;
16642;SDS011;8435;52.184;5.406;2023-08-01T05:13:00;8.07;;;4.63;;
16642;SDS011;8435;52.184;5.406;2023-08-01T05:15:27;8.93;;;4.93;;
16642;SDS011;8435;52.184;5.406;2023-08-01T05:17:54;10.17;;;4.67;;
16642;SDS011;8435;52.184;5.406;2023-08-01T05:20:22;8.53;;;4.90;;
16642;SDS011;8435;52.184;5.406;2023-08-01T05:22:51;10.33;;;4.20;;
16642;SDS011;8435;52.184;5.406;2023-08-01T05:25:17;10.27;;;4.97;;
16642;SDS011;8435;52.184;5.406;2023-08-01T05:27:47;6.83;;;4.30;;
16642;SDS011;8435;52.184;5.406;2023-08-01T05:30:14;6.43;;;4.17;;
16642;SDS011;8435;52.184;5.406;2023-08-01T05:32:41;5.60;;;4.47;;
16642;SDS011;8435;52.184;5.406;2023-08-01T05:35:08;6.40;;;3.87;;
16642;SDS011;8435;52.184;5.406;2023-08-01T05:37:44;9.57;;;4.07;;
16642;SDS011;8435;52.184;5.406;2023-08-01T05:40:11;6.90;;;4.05;;
16642;SDS011;8435;52.184;5.406;2023-08-01T05:42:39;7.53;;;4.00;;
16642;SDS011;8435;52.184;5.406;2023-08-01T05:45:06;8.03;;;4.20;;
16642;SDS011;8435;52.184;5.406;2023-08-01T05:47:33;7.67;;;4.40;;
16642;SDS011;8435;52.184;5.406;2023-08-01T05:50:01;9.60;;;4.63;;
16642;SDS011;8435;52.184;5.406;2023-08-01T05:52:29;8.80;;;4.20;;
16642;SDS011;8435;52.184;5.406;2023-08-01T05:54:58;5.60;;;3.75;;
16642;SDS011;8435;52.184;5.406;2023-08-01T05:57:24;7.40;;;4.30;;
16642;SDS011;8435;52.184;5.406;2023-08-01T05:59:51;5.90;;;4.20;;
16642;SDS011;8435;52.184;5.406;2023-08-01T06:02:18;8.00;;;3.88;;
16642;SDS011;8435;52.184;5.406;2023-08-01T06:04:47;6.63;;;4.20;;
16642;SDS011;8435;52.184;5.406;2023-08-01T06:07:14;7.13;;;3.92;;
16642;SDS011;8435;52.184;5.406;2023-08-01T06:09:41;5.47;;;4.03;;
16642;SDS011;8435;52.184;5.406;2023-08-01T06:12:09;5.38;;;3.70;;
16642;SDS011;8435;52.184;5.406;2023-08-01T06:14:36;6.97;;;3.63;;
16642;SDS011;8435;52.184;5.406;2023-08-01T06:17:03;8.75;;;4.10;;
16642;SDS011;8435;52.184;5.406;2023-08-01T06:19:30;6.47;;;3.95;;
16642;SDS011;8435;52.184;5.406;2023-08-01T06:21:57;5.05;;;3.42;;
16642;SDS011;8435;52.184;5.406;2023-08-01T06:24:25;6.43;;;4.40;;
16642;SDS011;8435;52.184;5.406;2023-08-01T06:26:52;4.20;;;3.33;;
16642;SDS011;8435;52.184;5.406;2023-08-01T06:29:20;8.85;;;3.90;;
16642;SDS011;8435;52.184;5.406;2023-08-01T06:31:47;4.95;;;3.20;;
16642;SDS011;8435;52.184;5.406;2023-08-01T06:34:14;5.68;;;3.92;;
16642;SDS011;8435;52.184;5.406;2023-08-01T06:36:41;5.75;;;3.15;;
16642;SDS011;8435;52.184;5.406;2023-08-01T06:39:07;5.32;;;3.17;;
16642;SDS011;8435;52.184;5.406;2023-08-01T06:41:34;7.93;;;3.67;;
16642;SDS011;8435;52.184;5.406;2023-08-01T06:44:01;6.53;;;3.30;;
16642;SDS011;8435;52.184;5.406;2023-08-01T06:46:29;6.40;;;3.58;;
16642;SDS011;8435;52.184;5.406;2023-08-01T06:48:59;6.40;;;3.22;;
16642;SDS011;8435;52.184;5.406;2023-08-01T06:51:26;3.45;;;3.08;;
16642;SDS011;8435;52.184;5.406;2023-08-01T06:53:53;5.50;;;3.13;;
16642;SDS011;8435;52.184;5.406;2023-08-01T06:56:24;4.38;;;2.50;;
16642;SDS011;8435;52.184;5.406;2023-08-01T06:58:51;4.70;;;2.60;;
16642;SDS011;8435;52.184;5.406;2023-08-01T07:01:18;5.53;;;2.80;;
16642;SDS011;8435;52.184;5.406;2023-08-01T07:03:46;6.22;;;3.05;;
16642;SDS011;8435;52.184;5.406;2023-08-01T07:06:16;5.95;;;2.97;;
16642;SDS011;8435;52.184;5.406;2023-08-01T07:08:42;4.65;;;2.75;;
16642;SDS011;8435;52.184;5.406;2023-08-01T07:11:09;6.18;;;2.70;;
16642;SDS011;8435;52.184;5.406;2023-08-01T07:13:36;4.28;;;2.25;;
16642;SDS011;8435;52.184;5.406;2023-08-01T07:16:03;4.65;;;3.00;;
16642;SDS011;8435;52.184;5.406;2023-08-01T07:18:30;5.95;;;2.70;;
16642;SDS011;8435;52.184;5.406;2023-08-01T07:21:01;5.05;;;2.95;;
16642;SDS011;8435;52.184;5.406;2023-08-01T07:23:37;3.95;;;2.53;;
16642;SDS011;8435;52.184;5.406;2023-08-01T07:26:07;4.28;;;2.63;;
16642;SDS011;8435;52.184;5.406;2023-08-01T07:28:34;6.22;;;2.70;;
16642;SDS011;8435;52.184;5.406;2023-08-01T07:31:03;6.28;;;2.67;;
16642;SDS011;8435;52.184;5.406;2023-08-01T07:33:31;4.28;;;2.75;;
16642;SDS011;8435;52.184;5.406;2023-08-01T07:35:58;4.68;;;2.70;;
16642;SDS011;8435;52.184;5.406;2023-08-01T07:38:27;5.88;;;2.45;;
16642;SDS011;8435;52.184;5.406;2023-08-01T07:40:56;4.18;;;2.50;;
16642;SDS011;8435;52.184;5.406;2023-08-01T07:43:25;4.68;;;2.90;;
16642;SDS011;8435;52.184;5.406;2023-08-01T07:45:55;5.18;;;3.03;;
16642;SDS011;8435;52.184;5.406;2023-08-01T07:48:22;4.95;;;2.50;;
16642;SDS011;8435;52.184;5.406;2023-08-01T07:50:50;4.57;;;2.60;;
16642;SDS011;8435;52.184;5.406;2023-08-01T07:53:18;4.68;;;2.67;;
16642;SDS011;8435;52.184;5.406;2023-08-01T07:55:46;3.55;;;2.35;;
16642;SDS011;8435;52.184;5.406;2023-08-01T07:58:13;4.25;;;2.08;;
16642;SDS011;8435;52.184;5.406;2023-08-01T08:00:39;2.50;;;1.98;;
16642;SDS011;8435;52.184;5.406;2023-08-01T08:03:06;4.38;;;2.83;;
16642;SDS011;8435;52.184;5.406;2023-08-01T08:05:34;4.97;;;2.15;;
16642;SDS011;8435;52.184;5.406;2023-08-01T08:08:03;5.55;;;2.47;;
16642;SDS011;8435;52.184;5.406;2023-08-01T08:10:30;2.88;;;2.20;;
16642;SDS011;8435;52.184;5.406;2023-08-01T08:12:58;6.18;;;2.67;;
16642;SDS011;8435;52.184;5.406;2023-08-01T08:15:25;5.28;;;2.63;;
16642;SDS011;8435;52.184;5.406;2023-08-01T08:17:58;4.40;;;2.55;;
16642;SDS011;8435;52.184;5.406;2023-08-01T08:20:26;4.18;;;2.70;;
16642;SDS011;8435;52.184;5.406;2023-08-01T08:22:53;4.88;;;2.90;;
16642;SDS011;8435;52.184;5.406;2023-08-01T08:25:20;3.20;;;2.08;;
16642;SDS011;8435;52.184;5.406;2023-08-01T08:27:47;3.90;;;2.60;;
16642;SDS011;8435;52.184;5.406;2023-08-01T08:30:17;4.15;;;2.58;;
16642;SDS011;8435;52.184;5.406;2023-08-01T08:32:43;3.05;;;2.38;;
16642;SDS011;8435;52.184;5.406;2023-08-01T08:35:10;4.93;;;2.88;;
16642;SDS011;8435;52.184;5.406;2023-08-01T08:37:37;5.03;;;2.78;;
16642;SDS011;8435;52.184;5.406;2023-08-01T08:40:06;3.83;;;2.38;;
16642;SDS011;8435;52.184;5.406;2023-08-01T08:42:35;2.75;;;2.25;;
16642;SDS011;8435;52.184;5.406;2023-08-01T08:45:02;6.05;;;2.08;;
16642;SDS011;8435;52.184;5.406;2023-08-01T08:47:36;3.92;;;2.53;;
16642;SDS011;8435;52.184;5.406;2023-08-01T08:50:04;2.45;;;1.83;;
16642;SDS011;8435;52.184;5.406;2023-08-01T08:52:32;2.35;;;1.95;;
16642;SDS011;8435;52.184;5.406;2023-08-01T08:54:59;5.05;;;2.20;;
16642;SDS011;8435;52.184;5.406;2023-08-01T08:57:28;5.07;;;2.53;;
16642;SDS011;8435;52.184;5.406;2023-08-01T08:59:56;4.78;;;1.85;;
16642;SDS011;8435;52.184;5.406;2023-08-01T09:02:23;3.42;;;1.90;;
16642;SDS011;8435;52.184;5.406;2023-08-01T09:04:52;2.97;;;2.00;;
16642;SDS011;8435;52.184;5.406;2023-08-01T09:07:19;3.22;;;1.98;;
16642;SDS011;8435;52.184;5.406;2023-08-01T09:09:51;3.35;;;1.80;;
16642;SDS011;8435;52.184;5.406;2023-08-01T09:12:18;2.88;;;1.95;;
16642;SDS011;8435;52.184;5.406;2023-08-01T09:14:46;3.13;;;1.80;;
16642;SDS011;8435;52.184;5.406;2023-08-01T09:17:22;2.97;;;1.80;;
16642;SDS011;8435;52.184;5.406;2023-08-01T09:19:49;3.65;;;2.00;;
16642;SDS011;8435;52.184;5.406;2023-08-01T09:22:28;5.35;;;2.40;;
16642;SDS011;8435;52.184;5.406;2023-08-01T09:24:55;4.47;;;1.90;;
16642;SDS011;8435;52.184;5.406;2023-08-01T09:27:22;2.03;;;1.30;;
16642;SDS011;8435;52.184;5.406;2023-08-01T09:29:49;1.77;;;1.60;;
16642;SDS011;8435;52.184;5.406;2023-08-01T09:32:16;6.45;;;1.95;;
16642;SDS011;8435;52.184;5.406;2023-08-01T09:34:43;2.72;;;1.45;;
16642;SDS011;8435;52.184;5.406;2023-08-01T09:37:14;2.65;;;1.70;;
16642;SDS011;8435;52.184;5.406;2023-08-01T09:39:41;3.47;;;1.92;;
16642;SDS011;8435;52.184;5.406;2023-08-01T09:42:11;4.13;;;1.95;;
16642;SDS011;8435;52.184;5.406;2023-08-01T09:44:38;3.83;;;2.20;;
16642;SDS011;8435;52.184;5.406;2023-08-01T09:47:11;5.10;;;2.25;;
16642;SDS011;8435;52.184;5.406;2023-08-01T09:49:46;4.68;;;2.17;;
16642;SDS011;8435;52.184;5.406;2023-08-01T09:52:25;3.47;;;1.80;;
16642;SDS011;8435;52.184;5.406;2023-08-01T09:54:53;3.72;;;1.90;;
16642;SDS011;8435;52.184;5.406;2023-08-01T09:57:20;2.75;;;1.88;;
16642;SDS011;8435;52.184;5.406;2023-08-01T09:59:48;3.28;;;1.92;;
16642;SDS011;8435;52.184;5.406;2023-08-01T10:02:16;2.92;;;1.98;;
16642;SDS011;8435;52.184;5.406;2023-08-01T10:04:48;2.90;;;1.88;;
16642;SDS011;8435;52.184;5.406;2023-08-01T10:07:23;5.20;;;2.40;;
16642;SDS011;8435;52.184;5.406;2023-08-01T10:09:52;3.63;;;2.20;;
16642;SDS011;8435;52.184;5.406;2023-08-01T10:12:22;4.28;;;2.00;;
16642;SDS011;8435;52.184;5.406;2023-08-01T10:14:51;3.00;;;1.77;;
16642;SDS011;8435;52.184;5.406;2023-08-01T10:17:19;4.70;;;2.15;;
16642;SDS011;8435;52.184;5.406;2023-08-01T10:19:48;4.78;;;2.00;;
16642;SDS011;8435;52.184;5.406;2023-08-01T10:22:22;6.22;;;2.10;;
16642;SDS011;8435;52.184;5.406;2023-08-01T10:24:50;4.22;;;1.95;;
16642;SDS011;8435;52.184;5.406;2023-08-01T10:27:20;5.22;;;1.98;;
16642;SDS011;8435;52.184;5.406;2023-08-01T10:29:55;4.78;;;2.00;;
16642;SDS011;8435;52.184;5.406;2023-08-01T10:32:27;3.17;;;1.65;;
16642;SDS011;8435;52.184;5.406;2023-08-01T10:34:55;1.92;;;1.65;;
16642;SDS011;8435;52.184;5.406;2023-08-01T10:37:23;3.55;;;1.60;;
16642;SDS011;8435;52.184;5.406;2023-08-01T10:39:56;4.40;;;1.90;;
16642;SDS011;8435;52.184;5.406;2023-08-01T10:42:23;1.80;;;1.42;;
16642;SDS011;8435;52.184;5.406;2023-08-01T10:44:51;3.40;;;1.50;;
16642;SDS011;8435;52.184;5.406;2023-08-01T10:47:24;2.00;;;1.48;;
16642;SDS011;8435;52.184;5.406;2023-08-01T10:49:52;3.00;;;1.50;;
16642;SDS011;8435;52.184;5.406;2023-08-01T10:52:20;4.80;;;1.70;;
16642;SDS011;8435;52.184;5.406;2023-08-01T10:54:56;3.55;;;1.63;;
16642;SDS011;8435;52.184;5.406;2023-08-01T10:57:26;3.05;;;1.58;;
16642;SDS011;8435;52.184;5.406;2023-08-01T10:59:54;3.85;;;1.80;;
16642;SDS011;8435;52.184;5.406;2023-08-01T11:02:22;3.25;;;2.00;;
16642;SDS011;8435;52.184;5.406;2023-08-01T11:04:56;2.75;;;1.67;;
16642;SDS011;8435;52.184;5.406;2023-08-01T11:07:24;1.70;;;1.48;;
16642;SDS011;8435;52.184;5.406;2023-08-01T11:10:03;3.92;;;1.70;;
16642;SDS011;8435;52.184;5.406;2023-08-01T11:12:34;4.10;;;1.75;;
16642;SDS011;8435;52.184;5.406;2023-08-01T11:15:02;6.10;;;2.08;;
16642;SDS011;8435;52.184;5.406;2023-08-01T11:17:31;4.55;;;1.88;;
16642;SDS011;8435;52.184;5.406;2023-08-01T11:20:01;3.10;;;1.80;;
16642;SDS011;8435;52.184;5.406;2023-08-01T11:22:30;3.22;;;1.70;;
16642;SDS011;8435;52.184;5.406;2023-08-01T11:24:57;3.05;;;1.73;;
16642;SDS011;8435;52.184;5.406;2023-08-01T11:27:25;2.13;;;1.52;;
16642;SDS011;8435;52.184;5.406;2023-08-01T11:29:53;3.10;;;1.65;;
16642;SDS011;8435;52.184;5.406;2023-08-01T11:32:20;4.10;;;2.00;;
16642;SDS011;8435;52.184;5.406;2023-08-01T11:34:48;6.25;;;1.92;;
16642;SDS011;8435;52.184;5.406;2023-08-01T11:37:17;4.70;;;2.08;;
16642;SDS011;8435;52.184;5.406;2023-08-01T11:39:45;3.05;;;1.65;;
16642;SDS011;8435;52.184;5.406;2023-08-01T11:42:14;2.10;;;1.40;;
16642;SDS011;8435;52.184;5.406;2023-08-01T11:44:43;1.70;;;1.50;;
16642;SDS011;8435;52.184;5.406;2023-08-01T11:47:11;2.83;;;1.88;;
16642;SDS011;8435;52.184;5.406;2023-08-01T11:49:39;3.13;;;1.63;;
16642;SDS011;8435;52.184;5.406;2023-08-01T11:52:21;3.10;;;1.70;;
16642;SDS011;8435;52.184;5.406;2023-08-01T11:54:49;3.47;;;1.73;;
16642;SDS011;8435;52.184;5.406;2023-08-01T11:57:16;3.17;;;1.42;;
16642;SDS011;8435;52.184;5.406;2023-08-01T11:59:48;3.50;;;1.40;;
16642;SDS011;8435;52.184;5.406;2023-08-01T12:02:22;3.20;;;1.60;;
16642;SDS011;8435;52.184;5.406;2023-08-01T12:04:50;3.33;;;1.80;;
16642;SDS011;8435;52.184;5.406;2023-08-01T12:07:18;2.20;;;1.70;;
16642;SDS011;8435;52.184;5.406;2023-08-01T12:09:54;4.75;;;1.73;;
16642;SDS011;8435;52.184;5.406;2023-08-01T12:12:22;2.85;;;1.63;;
16642;SDS011;8435;52.184;5.406;2023-08-01T12:14:50;2.45;;;1.63;;
16642;SDS011;8435;52.184;5.406;2023-08-01T12:17:18;4.53;;;1.70;;
16642;SDS011;8435;52.184;5.406;2023-08-01T12:19:45;3.97;;;1.77;;
16642;SDS011;8435;52.184;5.406;2023-08-01T12:22:15;3.55;;;1.67;;
16642;SDS011;8435;52.184;5.406;2023-08-01T12:24:42;5.20;;;1.98;;
16642;SDS011;8435;52.184;5.406;2023-08-01T12:27:09;2.95;;;1.85;;
16642;SDS011;8435;52.184;5.406;2023-08-01T12:29:38;4.70;;;1.80;;
16642;SDS011;8435;52.184;5.406;2023-08-01T12:32:07;3.50;;;1.80;;
16642;SDS011;8435;52.184;5.406;2023-08-01T12:34:34;3.42;;;1.83;;
16642;SDS011;8435;52.184;5.406;2023-08-01T12:37:01;3.03;;;1.83;;
16642;SDS011;8435;52.184;5.406;2023-08-01T12:39:31;7.70;;;2.30;;
16642;SDS011;8435;52.184;5.406;2023-08-01T12:41:58;3.42;;;1.60;;
16642;SDS011;8435;52.184;5.406;2023-08-01T12:44:27;4.53;;;2.10;;
16642;SDS011;8435;52.184;5.406;2023-08-01T12:46:54;3.55;;;1.90;;
16642;SDS011;8435;52.184;5.406;2023-08-01T12:49:22;3.10;;;1.60;;
16642;SDS011;8435;52.184;5.406;2023-08-01T12:51:49;4.20;;;1.50;;
16642;SDS011;8435;52.184;5.406;2023-08-01T12:54:22;1.85;;;1.35;;
16642;SDS011;8435;52.184;5.406;2023-08-01T12:56:49;3.38;;;1.77;;
16642;SDS011;8435;52.184;5.406;2023-08-01T12:59:18;2.30;;;1.10;;
16642;SDS011;8435;52.184;5.406;2023-08-01T13:01:44;3.53;;;1.42;;
16642;SDS011;8435;52.184;5.406;2023-08-01T13:04:11;2.65;;;1.52;;
16642;SDS011;8435;52.184;5.406;2023-08-01T13:06:40;2.33;;;1.25;;
16642;SDS011;8435;52.184;5.406;2023-08-01T13:09:06;2.85;;;1.35;;
16642;SDS011;8435;52.184;5.406;2023-08-01T13:11:33;2.40;;;1.40;;
16642;SDS011;8435;52.184;5.406;2023-08-01T13:14:01;2.63;;;1.40;;
16642;SDS011;8435;52.184;5.406;2023-08-01T13:16:28;3.42;;;1.30;;
16642;SDS011;8435;52.184;5.406;2023-08-01T13:18:56;2.53;;;1.35;;
16642;SDS011;8435;52.184;5.406;2023-08-01T13:21:23;1.98;;;1.38;;
16642;SDS011;8435;52.184;5.406;2023-08-01T13:23:51;3.20;;;1.83;;
16642;SDS011;8435;52.184;5.406;2023-08-01T13:26:18;4.75;;;2.20;;
16642;SDS011;8435;52.184;5.406;2023-08-01T13:28:45;4.32;;;1.83;;
16642;SDS011;8435;52.184;5.406;2023-08-01T13:31:12;7.13;;;2.40;;
16642;SDS011;8435;52.184;5.406;2023-08-01T13:33:39;6.25;;;1.95;;
16642;SDS011;8435;52.184;5.406;2023-08-01T13:36:05;2.78;;;1.73;;
16642;SDS011;8435;52.184;5.406;2023-08-01T13:38:32;3.63;;;2.10;;
16642;SDS011;8435;52.184;5.406;2023-08-01T13:41:03;5.40;;;2.22;;
16642;SDS011;8435;52.184;5.406;2023-08-01T13:43:30;3.88;;;2.20;;
16642;SDS011;8435;52.184;5.406;2023-08-01T13:45:57;2.15;;;1.60;;
16642;SDS011;8435;52.184;5.406;2023-08-01T13:48:23;4.40;;;2.03;;
16642;SDS011;8435;52.184;5.406;2023-08-01T13:50:50;2.40;;;1.70;;
16642;SDS011;8435;52.184;5.406;2023-08-01T13:53:18;4.82;;;1.60;;
16642;SDS011;8435;52.184;5.406;2023-08-01T13:55:44;3.22;;;2.00;;
16642;SDS011;8435;52.184;5.406;2023-08-01T13:58:13;3.60;;;1.42;;
16642;SDS011;8435;52.184;5.406;2023-08-01T14:00:40;3.33;;;1.70;;
16642;SDS011;8435;52.184;5.406;2023-08-01T14:03:08;2.95;;;1.42;;
16642;SDS011;8435;52.184;5.406;2023-08-01T14:05:35;2.60;;;1.67;;
16642;SDS011;8435;52.184;5.406;2023-08-01T14:08:02;2.97;;;1.83;;
16642;SDS011;8435;52.184;5.406;2023-08-01T14:10:30;2.97;;;1.52;;
16642;SDS011;8435;52.184;5.406;2023-08-01T14:12:56;3.08;;;1.70;;
16642;SDS011;8435;52.184;5.406;2023-08-01T14:15:25;5.55;;;1.80;;
16642;SDS011;8435;52.184;5.406;2023-08-01T14:17:52;3.47;;;1.80;;
16642;SDS011;8435;52.184;5.406;2023-08-01T14:20:19;2.97;;;1.63;;
16642;SDS011;8435;52.184;5.406;2023-08-01T14:22:45;3.78;;;1.80;;
16642;SDS011;8435;52.184;5.406;2023-08-01T14:25:12;3.17;;;1.55;;
16642;SDS011;8435;52.184;5.406;2023-08-01T14:27:41;4.22;;;1.98;;
16642;SDS011;8435;52.184;5.406;2023-08-01T14:30:10;5.03;;;2.13;;
16642;SDS011;8435;52.184;5.406;2023-08-01T14:32:38;6.75;;;1.60;;
16642;SDS011;8435;52.184;5.406;2023-08-01T14:35:06;3.40;;;2.00;;
16642;SDS011;8435;52.184;5.406;2023-08-01T14:37:33;2.15;;;1.38;;
16642;SDS011;8435;52.184;5.406;2023-08-01T14:40:00;3.60;;;1.75;;
16642;SDS011;8435;52.184;5.406;2023-08-01T14:42:29;2.75;;;1.70;;
16642;SDS011;8435;52.184;5.406;2023-08-01T14:44:57;3.85;;;1.60;;
16642;SDS011;8435;52.184;5.406;2023-08-01T14:47:27;3.75;;;1.67;;
16642;SDS011;8435;52.184;5.406;2023-08-01T14:49:56;4.20;;;1.55;;
16642;SDS011;8435;52.184;5.406;2023-08-01T14:52:23;5.95;;;2.00;;
16642;SDS011;8435;52.184;5.406;2023-08-01T14:54:50;3.10;;;1.88;;
16642;SDS011;8435;52.184;5.406;2023-08-01T14:57:17;5.15;;;2.05;;
16642;SDS011;8435;52.184;5.406;2023-08-01T14:59:44;3.30;;;1.67;;
16642;SDS011;8435;52.184;5.406;2023-08-01T15:02:11;3.95;;;1.83;;
16642;SDS011;8435;52.184;5.406;2023-08-01T15:04:38;1.58;;;1.20;;